Greensboro, Indiana
Current Conditions -  °F | °C
As of 6:16 AM on Thursday 18 Dec 2014 (Local Time) from KMQJ Reporting Station
Overcast Overcast  
Wind Chill: 25°   Ceiling: 1700
Heat Index: 25°   Visibility: 10mi
Dew Point: 16°   Wind: 3mph
Humidity: 69%   Direction: 100°E
Pressure: 30.24"   Gusts: NA
Location:  39.88°N, 85.47°W
Report Text: KMQJ 181116Z AUTO 10003KT 10SM OVC017 M04/M09 A3024 RMK AO1
Loading
Personal Weather Stations






























Interactive Weather Map New forecast layout! Learn more

10-Day Weather Forecast

Advertisements
Track Severe Weather on mobile